Time;durP1;ratioP1;P1;durP2;ratioP2;P2;SDS_P1;SDS_P2;PMS_P1;PMS_P2;Temp;Humidity;BMP_temperature;BMP_pressure;BME280_temperature;BME280_humidity;BME280_pressure;Samples;Min_cycle;Max_cycle;Signal;HPM_P1;HPM_P2
2022/04/06 00:00:40;;;;;;;;;;;;;;;29.07;22.16;100349.63;5020107;28;833;-42
2022/04/06 00:03:06;;;;;;;;;;;;;;;28.92;22.51;100352.47;5025268;28;1625;-43
2022/04/06 00:05:31;;;;;;;;;;;;;;;29.05;22.37;100355.25;5020499;28;836;-43
2022/04/06 00:07:57;;;;;;;;;;;;;;;28.97;22.43;100350.03;5019937;28;885;-43
2022/04/06 00:10:22;;;;;;;;;;;;;;;29.28;22.34;100347.78;5023304;28;1894;-44
2022/04/06 00:12:47;;;;;;;;;;;;;;;29.43;21.76;100344.84;5020285;28;873;-43
2022/04/06 00:15:13;;;;;;;;;;;;;;;29.00;22.22;100352.31;5020377;28;913;-43
2022/04/06 00:17:38;;;;;;;;;;;;;;;29.00;22.45;100351.47;5022162;28;857;-43
2022/04/06 00:20:04;;;;;;;;;;;;;;;29.34;22.14;100352.38;5019924;28;798;-43
2022/04/06 00:22:29;;;;;;;;;;;;;;;29.27;22.13;100362.34;5020237;28;754;-43
2022/04/06 00:24:54;;;;;;;;;;;;;;;29.54;21.97;100359.66;5021184;28;902;-43
2022/04/06 00:27:20;;;;;;;;;;;;;;;29.23;21.83;100359.22;5019961;28;790;-43
2022/04/06 00:29:45;;;;;;;;;;;;;;;29.02;21.86;100362.94;5025884;28;1894;-42
2022/04/06 00:32:10;;;;;;;;;;;;;;;29.13;22.46;100366.94;5019232;28;806;-43
2022/04/06 00:37:19;;;;;;;;;;;;;;;29.38;22.13;100375.28;5019618;28;1077;-43
2022/04/06 00:39:45;;;;;;;;;;;;;;;29.61;21.71;100370.53;5025373;28;929;-42
2022/04/06 00:42:10;;;;;;;;;;;;;;;29.15;21.65;100367.53;5021993;28;838;-42
2022/04/06 00:44:35;;;;;;;;;;;;;;;29.11;22.15;100367.16;5019554;28;839;-43
2022/04/06 00:47:04;;;;;;;;;;;;;;;29.36;22.26;100371.97;5019000;28;736;-43
2022/04/06 00:49:29;;;;;;;;;;;;;;;29.25;22.32;100370.69;5019272;28;714;-42
2022/04/06 00:51:55;;;;;;;;;;;;;;;29.50;21.97;100367.38;5019418;28;1971;-43
2022/04/06 00:54:21;;;;;;;;;;;;;;;29.20;22.04;100371.31;5023032;28;881;-42
2022/04/06 00:56:46;;;;;;;;;;;;;;;29.08;22.24;100364.81;5019306;28;799;-44
2022/04/06 00:59:11;;;;;;;;;;;;;;;29.31;22.35;100369.84;5017888;28;843;-43
2022/04/06 01:01:37;;;;;;;;;;;;;;;29.41;22.23;100368.63;5017800;28;845;-43
2022/04/06 01:04:03;;;;;;;;;;;;;;;29.60;21.91;100371.53;5019279;28;937;-44
2022/04/06 01:06:28;;;;;;;;;;;;;;;29.36;21.60;100371.97;5021173;28;817;-43
2022/04/06 01:08:53;;;;;;;;;;;;;;;29.11;21.77;100372.56;5021667;28;877;-43
2022/04/06 01:11:20;;;;;;;;;;;;;;;29.07;22.12;100379.41;5018849;28;1965;-42
2022/04/06 01:13:45;;;;;;;;;;;;;;;29.27;22.45;100375.91;5019058;28;849;-43
2022/04/06 01:16:10;;;;;;;;;;;;;;;29.28;22.15;100364.84;5019317;28;818;-43
2022/04/06 01:18:36;;;;;;;;;;;;;;;29.49;21.97;100365.72;5018749;28;835;-44
2022/04/06 01:21:02;;;;;;;;;;;;;;;29.20;21.72;100365.91;5024691;28;857;-43
2022/04/06 01:23:27;;;;;;;;;;;;;;;29.08;21.96;100362.97;5018841;28;785;-41
2022/04/06 01:25:52;;;;;;;;;;;;;;;29.07;22.10;100366.72;5025249;28;1583;-44
2022/04/06 01:28:18;;;;;;;;;;;;;;;29.20;22.49;100374.03;5018629;28;827;-42
2022/04/06 01:30:43;;;;;;;;;;;;;;;29.12;22.48;100370.66;5018920;28;1898;-42
2022/04/06 01:33:08;;;;;;;;;;;;;;;29.24;22.57;100369.03;5020267;28;897;-44
2022/04/06 01:35:38;;;;;;;;;;;;;;;29.58;21.63;100374.44;5018470;28;909;-42
2022/04/06 01:38:04;;;;;;;;;;;;;;;29.13;21.92;100372.34;5018266;28;1191;-42
2022/04/06 01:40:29;;;;;;;;;;;;;;;29.09;22.17;100377.34;5023930;28;829;-42
2022/04/06 01:42:54;;;;;;;;;;;;;;;29.27;22.60;100381.31;5018837;28;762;-43
2022/04/06 01:45:20;;;;;;;;;;;;;;;29.24;22.50;100385.28;5023198;28;791;-43
2022/04/06 01:47:45;;;;;;;;;;;;;;;29.32;22.49;100386.94;5024654;28;944;-43
2022/04/06 01:52:54;;;;;;;;;;;;;;;29.14;22.01;100388.41;5018204;28;786;-43
2022/04/06 01:55:19;;;;;;;;;;;;;;;29.07;22.27;100379.41;5021781;28;848;-42
2022/04/06 01:57:45;;;;;;;;;;;;;;;29.35;22.29;100386.53;5019478;28;952;-42
2022/04/06 02:00:12;;;;;;;;;;;;;;;29.08;22.61;100383.78;5018340;28;907;-43
2022/04/06 02:02:38;;;;;;;;;;;;;;;29.13;22.68;100380.47;5017916;28;821;-43
2022/04/06 02:05:03;;;;;;;;;;;;;;;29.59;22.15;100381.56;5017784;28;791;-43
2022/04/06 02:07:28;;;;;;;;;;;;;;;29.27;22.21;100384.88;5018114;28;893;-43
2022/04/06 02:09:54;;;;;;;;;;;;;;;29.07;22.70;100379.41;5020026;28;1952;-43
2022/04/06 02:12:21;;;;;;;;;;;;;;;29.32;22.47;100384.25;5022042;28;861;-43
2022/04/06 02:14:46;;;;;;;;;;;;;;;29.20;22.58;100392.13;5017622;28;1537;-43
2022/04/06 02:17:11;;;;;;;;;;;;;;;29.28;22.74;100386.53;5017351;28;810;-43
2022/04/06 02:19:37;;;;;;;;;;;;;;;29.59;22.04;100378.88;5017704;28;814;-42
2022/04/06 02:22:05;;;;;;;;;;;;;;;29.19;21.90;100380.50;5017840;28;826;-42
2022/04/06 02:24:31;;;;;;;;;;;;;;;29.15;22.46;100383.78;5024773;28;881;-44
2022/04/06 02:26:56;;;;;;;;;;;;;;;29.36;22.71;100387.38;5017719;28;794;-43
2022/04/06 02:29:21;;;;;;;;;;;;;;;29.20;22.59;100387.56;5017451;28;867;-43
2022/04/06 02:31:47;;;;;;;;;;;;;;;29.17;22.90;100390.69;5017191;28;1966;-42
2022/04/06 02:34:13;;;;;;;;;;;;;;;29.62;22.25;100386.56;5017788;28;895;-43
2022/04/06 02:36:38;;;;;;;;;;;;;;;29.17;22.23;100393.41;5022217;28;802;-43
2022/04/06 02:39:04;;;;;;;;;;;;;;;29.26;22.32;100394.00;5021580;28;1080;-43
2022/04/06 02:41:30;;;;;;;;;;;;;;;29.38;22.74;100393.44;5017180;28;818;-43
2022/04/06 02:43:55;;;;;;;;;;;;;;;29.26;22.72;100393.19;5016987;28;895;-43
2022/04/06 02:46:20;;;;;;;;;;;;;;;29.42;22.80;100397.38;5017199;28;925;-43
2022/04/06 02:48:46;;;;;;;;;;;;;;;29.50;22.31;100391.75;5018319;28;822;-43
2022/04/06 02:51:11;;;;;;;;;;;;;;;29.61;22.30;100394.91;5017461;28;1914;-43
2022/04/06 02:53:36;;;;;;;;;;;;;;;29.68;22.68;100384.88;5018226;28;885;-43
2022/04/06 02:56:02;;;;;;;;;;;;;;;29.40;23.19;100391.31;5018872;28;789;-43
2022/04/06 02:58:27;;;;;;;;;;;;;;;29.62;22.91;100389.28;5016691;28;853;-43
2022/04/06 03:00:54;;;;;;;;;;;;;;;29.26;22.31;100382.38;5017534;28;825;-43
2022/04/06 03:03:20;;;;;;;;;;;;;;;29.26;23.17;100390.50;5019817;28;781;-43
2022/04/06 03:05:45;;;;;;;;;;;;;;;29.33;23.76;100396.72;5017080;28;826;-43
2022/04/06 03:08:10;;;;;;;;;;;;;;;29.29;23.34;100400.91;5017070;28;857;-43
2022/04/06 03:10:36;;;;;;;;;;;;;;;29.31;23.35;100393.41;5024022;28;1894;-43
2022/04/06 03:13:01;;;;;;;;;;;;;;;29.54;23.13;100400.31;5016985;28;842;-43
2022/04/06 03:15:27;;;;;;;;;;;;;;;29.47;22.57;100405.72;5018251;28;999;-43
2022/04/06 03:17:52;;;;;;;;;;;;;;;29.27;22.74;100395.69;5017003;28;829;-43
2022/04/06 03:20:17;;;;;;;;;;;;;;;29.71;22.72;100408.88;5017311;28;783;-42
2022/04/06 03:22:43;;;;;;;;;;;;;;;28.69;22.01;100405.94;5016241;28;929;-43
2022/04/06 03:25:08;;;;;;;;;;;;;;;28.14;23.01;100416.66;5022473;28;892;-44
2022/04/06 03:27:34;;;;;;;;;;;;;;;28.67;22.67;100413.44;5020248;28;917;-42
2022/04/06 03:29:59;;;;;;;;;;;;;;;28.78;22.97;100411.19;5016578;28;1944;-43
2022/04/06 03:32:25;;;;;;;;;;;;;;;28.99;22.54;100414.81;5017218;28;806;-42
2022/04/06 03:34:50;;;;;;;;;;;;;;;29.27;22.14;100416.53;5017176;28;878;-43
2022/04/06 03:37:15;;;;;;;;;;;;;;;28.59;22.27;100425.25;5016226;28;943;-42
2022/04/06 03:39:40;;;;;;;;;;;;;;;28.05;22.07;100424.06;5019439;28;1101;-43
2022/04/06 03:42:06;;;;;;;;;;;;;;;28.16;21.26;100428.91;5017029;28;870;-43
2022/04/06 03:44:31;;;;;;;;;;;;;;;28.75;20.73;100435.91;5016722;28;766;-43
2022/04/06 03:46:56;;;;;;;;;;;;;;;29.19;20.69;100431.97;5016522;28;1121;-42
2022/04/06 03:49:22;;;;;;;;;;;;;;;28.68;21.69;100431.31;5016387;28;898;-42
2022/04/06 03:51:47;;;;;;;;;;;;;;;28.69;21.46;100440.28;5016950;28;1971;-43
2022/04/06 03:54:12;;;;;;;;;;;;;;;28.92;19.90;100434.53;5021147;28;920;-44
2022/04/06 03:56:38;;;;;;;;;;;;;;;28.27;19.40;100437.53;5016271;28;838;-43
2022/04/06 03:59:04;;;;;;;;;;;;;;;26.59;18.87;100441.06;5016304;28;798;-40
2022/04/06 04:01:30;;;;;;;;;;;;;;;26.23;20.60;100438.03;5024973;28;1244;-43
2022/04/06 04:03:55;;;;;;;;;;;;;;;26.28;19.46;100442.88;5023064;28;729;-40
2022/04/06 04:06:20;;;;;;;;;;;;;;;27.07;18.34;100435.25;5020300;28;905;-39
2022/04/06 04:08:46;;;;;;;;;;;;;;;27.20;18.09;100439.09;5021381;28;1017;-42
2022/04/06 04:11:11;;;;;;;;;;;;;;;26.61;18.28;100442.53;5020845;28;1948;-42
2022/04/06 04:13:36;;;;;;;;;;;;;;;26.18;18.84;100443.13;5016155;28;932;-42
2022/04/06 04:16:02;;;;;;;;;;;;;;;27.92;16.96;100435.63;5029500;28;858;-42
2022/04/06 04:18:27;;;;;;;;;;;;;;;27.99;17.04;100441.94;5028471;28;896;-43
2022/04/06 04:21:31;;;;;;;;;;;;;;;28.13;17.10;100433.91;5016646;28;810;-42
2022/04/06 04:23:37;;;;;;;;;;;;;;;28.26;16.64;100446.69;5022027;28;1319;-43
2022/04/06 04:26:03;;;;;;;;;;;;;;;28.30;16.87;100450.66;5020153;28;951;-42
2022/04/06 04:28:28;;;;;;;;;;;;;;;28.29;17.09;100451.69;5021235;28;1053;-43
2022/04/06 04:30:53;;;;;;;;;;;;;;;28.32;16.85;100444.03;5026843;28;1992;-43
2022/04/06 04:33:18;;;;;;;;;;;;;;;28.30;16.74;100456.06;5033725;28;1167;-43
2022/04/06 04:35:44;;;;;;;;;;;;;;;28.39;16.78;100463.03;5020636;28;1006;-42
2022/04/06 04:38:09;;;;;;;;;;;;;;;28.47;16.65;100468.28;5038196;28;1253;-43
2022/04/06 04:40:34;;;;;;;;;;;;;;;28.54;16.46;100470.19;5030529;28;1226;-42
2022/04/06 04:43:00;;;;;;;;;;;;;;;28.50;16.81;100463.50;5038213;28;1218;-43
2022/04/06 04:45:25;;;;;;;;;;;;;;;28.43;17.18;100474.28;5019151;28;834;-43
2022/04/06 04:47:50;;;;;;;;;;;;;;;28.36;17.37;100476.97;5019108;28;877;-43
2022/04/06 04:50:19;;;;;;;;;;;;;;;28.52;17.26;100483.91;5017985;28;1959;-43
2022/04/06 04:52:44;;;;;;;;;;;;;;;28.70;17.51;100490.66;5019855;28;814;-43
2022/04/06 04:55:10;;;;;;;;;;;;;;;28.79;17.41;100489.47;5030813;28;989;-43
2022/04/06 04:57:35;;;;;;;;;;;;;;;28.91;17.63;100489.72;5035623;28;1054;-42
2022/04/06 05:00:00;;;;;;;;;;;;;;;29.00;17.87;100490.41;5037599;28;967;-42
2022/04/06 05:02:25;;;;;;;;;;;;;;;29.02;17.91;100498.34;5036525;28;980;-43
2022/04/06 05:04:51;;;;;;;;;;;;;;;27.23;20.29;100498.97;5038174;28;933;-42
2022/04/06 05:07:16;;;;;;;;;;;;;;;26.69;20.64;100495.56;5037933;28;885;-41
2022/04/06 05:09:41;;;;;;;;;;;;;;;28.38;19.24;100501.09;5032544;28;746;-42
2022/04/06 05:12:08;;;;;;;;;;;;;;;28.41;19.12;100504.22;5018913;28;914;-42
2022/04/06 05:14:33;;;;;;;;;;;;;;;28.38;19.44;100507.34;5019030;28;857;-43
2022/04/06 05:16:58;;;;;;;;;;;;;;;28.42;19.19;100502.38;5018854;28;794;-42
2022/04/06 05:19:24;;;;;;;;;;;;;;;28.11;19.84;100499.00;5019158;28;902;-43
2022/04/06 05:21:49;;;;;;;;;;;;;;;27.23;20.59;100507.06;5024311;28;895;-41
2022/04/06 05:24:14;;;;;;;;;;;;;;;27.45;20.68;100508.97;5021968;28;874;-41
2022/04/06 05:26:40;;;;;;;;;;;;;;;27.90;20.03;100506.09;5018969;28;814;-42
2022/04/06 05:29:05;;;;;;;;;;;;;;;27.62;20.50;100507.72;5017969;28;861;-43
2022/04/06 05:31:30;;;;;;;;;;;;;;;27.37;21.21;100509.94;5018821;28;1914;-43
2022/04/06 05:33:56;;;;;;;;;;;;;;;28.44;19.98;100516.53;5020398;28;850;-40
2022/04/06 05:36:23;;;;;;;;;;;;;;;28.38;19.84;100520.03;5020590;28;945;-43
2022/04/06 05:38:48;;;;;;;;;;;;;;;28.20;20.26;100524.88;5019879;28;1221;-43
2022/04/06 05:41:13;;;;;;;;;;;;;;;27.54;21.09;100526.75;5025424;28;1037;-43
2022/04/06 05:43:39;;;;;;;;;;;;;;;27.12;21.49;100524.59;5037648;28;781;-43
2022/04/06 05:46:04;;;;;;;;;;;;;;;28.37;20.05;100519.19;5037215;28;898;-43
2022/04/06 05:48:29;;;;;;;;;;;;;;;28.46;20.20;100519.91;5024268;28;846;-42
2022/04/06 05:50:55;;;;;;;;;;;;;;;27.48;20.43;100522.09;5032064;28;1914;-41
2022/04/06 05:53:20;;;;;;;;;;;;;;;26.25;22.40;100518.75;5018227;28;833;-42
2022/04/06 05:55:47;;;;;;;;;;;;;;;25.82;22.59;100521.97;5023349;28;905;-42
2022/04/06 05:58:13;;;;;;;;;;;;;;;25.61;22.72;100528.81;5021444;28;1460;-42
2022/04/06 06:00:38;;;;;;;;;;;;;;;25.39;23.62;100528.59;5028624;28;1398;-41
2022/04/06 06:03:03;;;;;;;;;;;;;;;25.80;23.64;100527.53;5027362;28;1480;-44
2022/04/06 06:05:29;;;;;;;;;;;;;;;25.98;22.88;100529.91;5032560;28;1195;-43
2022/04/06 06:07:54;;;;;;;;;;;;;;;25.92;22.85;100530.66;5028851;28;1235;-42
2022/04/06 06:10:20;;;;;;;;;;;;;;;26.02;23.05;100543.88;5024637;28;1910;-42
2022/04/06 06:12:46;;;;;;;;;;;;;;;25.79;23.25;100531.25;5025170;28;1441;-43
2022/04/06 06:15:11;;;;;;;;;;;;;;;25.74;23.34;100539.03;5020372;28;988;-42
2022/04/06 06:17:39;;;;;;;;;;;;;;;25.61;23.40;100534.19;5017687;28;815;-42
2022/04/06 06:20:05;;;;;;;;;;;;;;;25.55;23.58;100524.97;5024635;28;1539;-43
2022/04/06 06:22:31;;;;;;;;;;;;;;;25.61;23.57;100524.25;5025692;28;1452;-42
2022/04/06 06:24:56;;;;;;;;;;;;;;;25.67;23.91;100528.94;5023717;28;1367;-43
2022/04/06 06:27:23;;;;;;;;;;;;;;;25.62;23.80;100534.03;5029857;28;1065;-43
2022/04/06 06:29:48;;;;;;;;;;;;;;;25.53;23.84;100530.53;5026403;28;1962;-43
2022/04/06 06:32:14;;;;;;;;;;;;;;;25.54;23.76;100537.59;5016822;28;798;-42
2022/04/06 06:34:39;;;;;;;;;;;;;;;25.57;23.93;100544.50;5021875;28;1496;-42
2022/04/06 06:37:05;;;;;;;;;;;;;;;25.50;24.37;100536.28;5021268;28;1307;-42
2022/04/06 06:39:31;;;;;;;;;;;;;;;25.51;24.15;100542.47;5023735;28;1311;-42
2022/04/06 06:41:56;;;;;;;;;;;;;;;25.49;24.09;100544.53;5017511;28;1685;-42
2022/04/06 06:44:21;;;;;;;;;;;;;;;25.51;24.04;100542.47;5029555;28;1356;-42
2022/04/06 06:46:47;;;;;;;;;;;;;;;25.65;23.90;100546.31;5019157;28;1239;-43
2022/04/06 06:49:13;;;;;;;;;;;;;;;25.53;24.13;100543.16;5031025;28;1507;-42
2022/04/06 06:51:39;;;;;;;;;;;;;;;25.40;24.05;100546.41;5022524;28;1936;-42
2022/04/06 06:54:04;;;;;;;;;;;;;;;25.34;24.42;100547.13;5027453;28;1293;-42
2022/04/06 06:56:29;;;;;;;;;;;;;;;25.58;23.88;100546.16;5016421;28;823;-42
2022/04/06 06:58:55;;;;;;;;;;;;;;;25.48;23.92;100549.06;5020544;28;1232;-42
2022/04/06 07:01:20;;;;;;;;;;;;;;;25.46;24.01;100551.09;5023149;28;1563;-42
2022/04/06 07:03:45;;;;;;;;;;;;;;;25.37;24.02;100547.63;5029208;28;1248;-42
2022/04/06 07:06:11;;;;;;;;;;;;;;;25.42;24.09;100560.56;5033397;28;1212;-42
2022/04/06 07:08:36;;;;;;;;;;;;;;;25.48;24.11;100553.59;5023112;28;1398;-42
2022/04/06 07:11:01;;;;;;;;;;;;;;;25.50;24.24;100559.66;5020853;28;1894;-42
2022/04/06 07:13:28;;;;;;;;;;;;;;;25.72;23.68;100562.59;5024847;28;1301;-42
2022/04/06 07:15:54;;;;;;;;;;;;;;;25.60;23.64;100562.13;5023492;28;1454;-42
2022/04/06 07:18:21;;;;;;;;;;;;;;;25.90;23.67;100568.56;5022186;28;1406;-42
2022/04/06 07:20:47;;;;;;;;;;;;;;;25.77;23.22;100565.59;5022049;28;1155;-42
2022/04/06 07:23:12;;;;;;;;;;;;;;;25.81;23.50;100566.91;5024756;28;1205;-43
2022/04/06 07:25:39;;;;;;;;;;;;;;;25.85;23.39;100570.09;5029934;28;1347;-43
2022/04/06 07:28:05;;;;;;;;;;;;;;;25.97;23.37;100573.22;5025661;28;1440;-42
2022/04/06 07:30:30;;;;;;;;;;;;;;;25.93;23.31;100570.03;5019139;28;1941;-42
2022/04/06 07:32:57;;;;;;;;;;;;;;;25.96;23.19;100577.75;5016865;28;868;-42
2022/04/06 07:35:23;;;;;;;;;;;;;;;26.03;23.09;100577.88;5022091;28;1347;-42
2022/04/06 07:37:48;;;;;;;;;;;;;;;26.01;23.08;100569.13;5018730;28;1212;-42
2022/04/06 07:40:14;;;;;;;;;;;;;;;26.04;23.08;100575.00;5030322;28;1277;-42
2022/04/06 07:42:40;;;;;;;;;;;;;;;26.12;23.39;100576.81;5027827;28;1250;-42
2022/04/06 07:45:07;;;;;;;;;;;;;;;26.15;22.89;100581.84;5031837;28;767;-42
2022/04/06 07:47:32;;;;;;;;;;;;;;;25.84;23.32;100581.91;5027321;28;1098;-42
2022/04/06 07:49:58;;;;;;;;;;;;;;;26.21;24.00;100580.28;5023477;28;1902;-42
2022/04/06 07:52:24;;;;;;;;;;;;;;;26.39;23.85;100577.28;5023929;28;1165;-40
2022/04/06 07:54:49;;;;;;;;;;;;;;;26.46;23.97;100574.69;5030172;28;1368;-41
2022/04/06 07:57:14;;;;;;;;;;;;;;;26.53;23.88;100572.09;5035254;28;1347;-42
2022/04/06 07:59:40;;;;;;;;;;;;;;;26.53;23.81;100575.66;5022541;28;1387;-42
2022/04/06 08:02:05;;;;;;;;;;;;;;;26.71;23.89;100573.63;5017645;28;1561;-41
2022/04/06 08:04:30;;;;;;;;;;;;;;;26.69;23.57;100571.13;5016133;28;793;-41
2022/04/06 08:06:56;;;;;;;;;;;;;;;26.70;23.86;100571.94;5022848;28;1553;-41
2022/04/06 08:09:21;;;;;;;;;;;;;;;26.72;23.63;100568.06;5030434;28;1557;-41
2022/04/06 08:11:47;;;;;;;;;;;;;;;26.73;24.03;100566.16;5025121;28;1910;-41
2022/04/06 08:14:12;;;;;;;;;;;;;;;26.72;23.62;100569.91;5026291;28;1323;-41
2022/04/06 08:16:38;;;;;;;;;;;;;;;26.70;23.80;100570.09;5019637;28;900;-41
2022/04/06 08:19:03;;;;;;;;;;;;;;;26.78;23.65;100569.16;5023906;28;1466;-41
2022/04/06 08:21:28;;;;;;;;;;;;;;;26.81;23.66;100570.66;5030701;28;1423;-41
2022/04/06 08:23:53;;;;;;;;;;;;;;;26.69;23.84;100563.03;5033296;28;1304;-41
2022/04/06 08:26:19;;;;;;;;;;;;;;;26.63;23.23;100575.38;5035730;28;1280;-41
2022/04/06 08:28:45;;;;;;;;;;;;;;;26.60;23.26;100573.06;5030866;28;1386;-41
2022/04/06 08:31:11;;;;;;;;;;;;;;;26.51;22.69;100569.59;5026751;28;1911;-41
2022/04/06 08:33:38;;;;;;;;;;;;;;;26.49;22.60;100574.31;5030181;28;966;-41
2022/04/06 08:36:06;;;;;;;;;;;;;;;26.17;22.97;100573.56;5026979;28;1258;-41
2022/04/06 08:38:31;;;;;;;;;;;;;;;26.25;22.50;100570.81;5035991;28;1132;-42
2022/04/06 08:40:56;;;;;;;;;;;;;;;26.21;22.81;100564.09;5035688;28;1226;-41
2022/04/06 08:43:22;;;;;;;;;;;;;;;26.23;22.09;100561.22;5019422;28;859;-41
2022/04/06 08:45:47;;;;;;;;;;;;;;;26.19;22.29;100565.31;5024478;28;1441;-40
2022/04/06 08:48:13;;;;;;;;;;;;;;;26.34;22.02;100562.69;5019630;28;900;-41
2022/04/06 08:50:39;;;;;;;;;;;;;;;26.23;22.01;100556.66;5019123;28;1959;-42
2022/04/06 08:53:04;;;;;;;;;;;;;;;26.29;21.98;100560.50;5019147;28;1433;-41
2022/04/06 08:55:30;;;;;;;;;;;;;;;26.22;21.35;100565.78;5020703;28;816;-39
2022/04/06 08:57:56;;;;;;;;;;;;;;;26.19;22.13;100557.22;5023726;28;776;-39
2022/04/06 09:00:21;;;;;;;;;;;;;;;26.19;21.81;100552.69;5021303;28;1140;-39
2022/04/06 09:02:46;;;;;;;;;;;;;;;26.22;21.42;100546.91;5022778;28;1282;-40
2022/04/06 09:05:12;;;;;;;;;;;;;;;26.22;20.80;100551.47;5037653;28;803;-39
2022/04/06 09:07:38;;;;;;;;;;;;;;;26.24;21.00;100544.03;5037684;28;747;-39
2022/04/06 09:10:04;;;;;;;;;;;;;;;26.18;21.79;100542.88;5030511;28;1902;-39
2022/04/06 09:12:29;;;;;;;;;;;;;;;26.15;22.14;100538.72;5019242;28;870;-37
2022/04/06 09:15:04;;;;;;;;;;;;;;;26.66;21.65;100531.00;5025012;28;1296;-42
2022/04/06 09:17:30;;;;;;;;;;;;;;;26.84;21.61;100532.50;5027543;28;1499;-41
2022/04/06 09:19:55;;;;;;;;;;;;;;;27.00;21.47;100531.47;5028582;28;1430;-42
2022/04/06 09:22:20;;;;;;;;;;;;;;;27.12;21.66;100532.72;5024022;28;1312;-41
2022/04/06 09:24:54;;;;;;;;;;;;;;;27.15;21.41;100528.78;5031755;28;1206;-40
2022/04/06 09:27:20;;;;;;;;;;;;;;;27.14;21.59;100537.91;5028410;28;1297;-41
2022/04/06 09:29:48;;;;;;;;;;;;;;;27.18;21.38;100541.06;5031555;28;1211;-41
2022/04/06 09:32:14;;;;;;;;;;;;;;;27.15;21.42;100534.19;5035149;28;1890;-41
2022/04/06 09:34:39;;;;;;;;;;;;;;;27.17;21.77;100531.28;5021810;28;978;-42
2022/04/06 09:37:23;;;;;;;;;;;;;;;26.63;22.26;100536.75;5025982;28;1331;-43
2022/04/06 09:39:48;;;;;;;;;;;;;;;26.86;22.51;100525.06;5032729;28;1408;-42
2022/04/06 09:42:21;;;;;;;;;;;;;;;27.03;22.02;100514.91;5035829;28;1152;-42
2022/04/06 09:47:40;;;;;;;;;;;;;;;27.13;22.01;100520.03;5017676;28;1240;-43
2022/04/06 09:50:26;;;;;;;;;;;;;;;27.18;21.94;100523.00;5027999;28;1971;-42
2022/04/06 09:52:52;;;;;;;;;;;;;;;27.22;22.22;100523.47;5030160;28;798;-43
2022/04/06 09:55:18;;;;;;;;;;;;;;;27.37;21.73;100508.06;5034633;28;1165;-42
2022/04/06 09:57:45;;;;;;;;;;;;;;;27.36;21.95;100513.66;5028305;28;1411;-42
2022/04/06 10:00:11;;;;;;;;;;;;;;;27.56;21.87;100507.63;5023571;28;1041;-45
2022/04/06 10:02:37;;;;;;;;;;;;;;;27.53;22.20;100511.53;5032741;28;1217;-42
2022/04/06 10:05:02;;;;;;;;;;;;;;;27.68;21.95;100518.75;5028801;28;1033;-43
2022/04/06 10:07:28;;;;;;;;;;;;;;;27.70;21.93;100511.31;5029091;28;1085;-42
2022/04/06 10:09:53;;;;;;;;;;;;;;;27.74;21.79;100507.22;5026907;28;1484;-43
2022/04/06 10:12:19;;;;;;;;;;;;;;;27.74;21.85;100513.44;5018928;28;1194;-42
2022/04/06 10:14:45;;;;;;;;;;;;;;;27.75;21.85;100514.28;5027254;28;1237;-42
2022/04/06 10:17:10;;;;;;;;;;;;;;;27.72;21.96;100506.56;5017500;28;1257;-42
2022/04/06 10:19:37;;;;;;;;;;;;;;;27.80;22.03;100508.28;5033300;28;801;-42
2022/04/06 10:22:05;;;;;;;;;;;;;;;27.77;22.25;100506.81;5025490;28;1281;-42
2022/04/06 10:24:33;;;;;;;;;;;;;;;27.76;22.08;100505.13;5027098;28;1292;-43
2022/04/06 10:27:01;;;;;;;;;;;;;;;27.78;22.78;100504.97;5033922;28;1293;-43
2022/04/06 10:29:27;;;;;;;;;;;;;;;27.74;22.53;100505.34;5020112;28;1441;-42
2022/04/06 10:31:52;;;;;;;;;;;;;;;27.77;22.20;100497.88;5030286;28;1968;-42
2022/04/06 10:34:24;;;;;;;;;;;;;;;27.89;22.29;100503.59;5025811;28;1559;-42
2022/04/06 10:37:11;;;;;;;;;;;;;;;27.87;22.02;100507.34;5024967;28;1306;-42
2022/04/06 10:40:03;;;;;;;;;;;;;;;27.91;22.12;100507.78;5020440;28;1197;-42
2022/04/06 10:42:32;;;;;;;;;;;;;;;27.59;22.85;100504.53;5023182;28;1715;-43
2022/04/06 10:44:57;;;;;;;;;;;;;;;27.43;22.88;100503.75;5025025;28;1219;-43
2022/04/06 10:47:23;;;;;;;;;;;;;;;27.57;23.08;100501.19;5022029;28;1387;-44
2022/04/06 10:50:07;;;;;;;;;;;;;;;27.59;22.73;100504.53;5016440;28;833;-43
2022/04/06 10:52:33;;;;;;;;;;;;;;;27.59;23.03;100504.53;5034868;28;1388;-43
2022/04/06 10:55:02;;;;;;;;;;;;;;;27.70;23.04;100503.22;5027950;28;1356;-44
2022/04/06 10:57:47;;;;;;;;;;;;;;;27.66;23.22;100501.91;5037618;28;1403;-44
2022/04/06 11:00:14;;;;;;;;;;;;;;;27.58;22.94;100508.25;5022120;28;1212;-43
2022/04/06 11:02:46;;;;;;;;;;;;;;;27.51;23.43;100508.19;5036907;28;1196;-43
2022/04/06 11:05:11;;;;;;;;;;;;;;;27.54;23.51;100506.97;5028866;28;1506;-44
2022/04/06 11:10:26;;;;;;;;;;;;;;;27.50;23.58;100499.25;5019516;28;1902;-44
2022/04/06 11:13:01;;;;;;;;;;;;;;;26.94;23.45;100381.91;5018466;28;1241;-43
2022/04/06 11:15:34;;;;;;;;;;;;;;;27.71;23.74;100513.00;5020760;28;1471;-44
2022/04/06 11:17:59;;;;;;;;;;;;;;;27.65;23.74;100500.22;5023961;28;1212;-44
2022/04/06 11:20:31;;;;;;;;;;;;;;;27.61;23.48;100514.13;5018275;28;1139;-44
2022/04/06 11:22:57;;;;;;;;;;;;;;;27.53;23.33;100505.31;5017953;28;1391;-44
2022/04/06 11:25:25;;;;;;;;;;;;;;;27.50;23.64;100499.25;5026618;28;1373;-44
2022/04/06 11:27:51;;;;;;;;;;;;;;;27.60;23.73;100509.75;5026192;28;1158;-43
2022/04/06 11:30:17;;;;;;;;;;;;;;;27.67;23.97;100507.13;5023654;28;1965;-45
2022/04/06 11:32:45;;;;;;;;;;;;;;;27.51;23.38;100500.94;5029413;28;1300;-42
2022/04/06 11:35:10;;;;;;;;;;;;;;;27.12;23.52;100500.31;5026635;28;1427;-44
2022/04/06 11:37:48;;;;;;;;;;;;;;;26.94;23.53;100497.13;5020338;28;1068;-42
2022/04/06 11:40:15;;;;;;;;;;;;;;;27.11;23.80;100495.09;5025146;28;1376;-42
2022/04/06 11:42:40;;;;;;;;;;;;;;;27.14;24.04;100503.63;5030462;28;1220;-42
2022/04/06 11:45:06;;;;;;;;;;;;;;;27.25;23.82;100499.63;5031838;28;1142;-42
2022/04/06 11:47:35;;;;;;;;;;;;;;;27.25;23.90;100496.06;5023696;28;1296;-42
2022/04/06 11:50:00;;;;;;;;;;;;;;;26.64;21.82;100500.69;5031425;28;1977;-35
2022/04/06 11:52:26;;;;;;;;;;;;;;;26.93;22.55;100480.09;5037751;28;1177;-36
2022/04/06 11:54:57;;;;;;;;;;;;;;;26.89;23.02;100489.59;5032236;28;1240;-35
2022/04/06 11:57:32;;;;;;;;;;;;;;;26.65;21.62;100495.09;5031034;28;1083;-36
2022/04/06 11:59:57;;;;;;;;;;;;;;;26.62;20.71;100483.84;5029151;28;1293;-36
2022/04/06 12:02:23;;;;;;;;;;;;;;;26.81;21.07;100495.91;5027571;28;1320;-37
2022/04/06 12:05:00;;;;;;;;;;;;;;;27.14;19.86;100502.81;5022995;28;1327;-35
2022/04/06 12:07:26;;;;;;;;;;;;;;;27.08;20.67;100487.34;5035771;28;1459;-35
2022/04/06 12:09:51;;;;;;;;;;;;;;;26.87;21.79;100487.09;5028368;28;1561;-37
2022/04/06 12:12:16;;;;;;;;;;;;;;;26.90;22.91;100481.31;5028985;28;1969;-34
2022/04/06 12:14:42;;;;;;;;;;;;;;;26.46;23.38;100485.69;5027858;28;1261;-34
2022/04/06 12:17:07;;;;;;;;;;;;;;;26.44;22.73;100476.97;5025049;28;1517;-35
2022/04/06 12:19:33;;;;;;;;;;;;;;;26.57;22.63;100470.06;5025517;28;1372;-34
2022/04/06 12:22:07;;;;;;;;;;;;;;;26.59;23.43;100476.94;5029047;28;1376;-34
2022/04/06 12:24:36;;;;;;;;;;;;;;;26.57;24.02;100470.06;5033924;28;1272;-34
2022/04/06 12:27:02;;;;;;;;;;;;;;;26.50;24.11;100478.91;5038194;28;1118;-34
2022/04/06 12:29:27;;;;;;;;;;;;;;;26.48;23.76;100472.84;5037186;28;786;-34
2022/04/06 12:31:53;;;;;;;;;;;;;;;26.52;23.85;100470.63;5032582;28;1925;-34
2022/04/06 12:34:46;;;;;;;;;;;;;;;26.61;24.06;100469.50;5030081;28;1399;-34
2022/04/06 12:37:30;;;;;;;;;;;;;;;26.57;23.74;100470.91;5026169;28;1948;-37
2022/04/06 12:39:55;;;;;;;;;;;;;;;26.49;24.07;100474.53;5029055;28;1356;-35
2022/04/06 12:42:21;;;;;;;;;;;;;;;26.37;24.10;100463.38;5024155;28;1240;-35
2022/04/06 12:44:57;;;;;;;;;;;;;;;26.41;23.92;100467.38;5028355;28;1234;-34
2022/04/06 12:47:26;;;;;;;;;;;;;;;26.33;24.16;100464.75;5018133;28;856;-32
2022/04/06 12:49:51;;;;;;;;;;;;;;;26.20;24.53;100454.59;5020693;28;978;-42
2022/04/06 12:52:23;;;;;;;;;;;;;;;26.11;24.47;100453.81;5024915;28;1988;-42
2022/04/06 12:54:49;;;;;;;;;;;;;;;26.06;24.83;100456.22;5027151;28;1280;-42
2022/04/06 12:57:18;;;;;;;;;;;;;;;26.04;24.54;100459.09;5021559;28;1177;-42